Time;durP1;ratioP1;P1;durP2;ratioP2;P2;SDS_P1;SDS_P2;PMS_P1;PMS_P2;Temp;Humidity;BMP_temperature;BMP_pressure;BME280_temperature;BME280_humidity;BME280_pressure;Samples;Min_cycle;Max_cycle;Signal;HPM_P1;HPM_P2
2022/06/10 00:01:06;;;;;;;22.35;10.50;;;;;;;20.90;58.28;99551.53;5032605;28;20049;-82
2022/06/10 00:03:35;;;;;;;18.10;10.35;;;;;;;20.98;58.14;99544.97;5033702;28;20144;-82
2022/06/10 00:06:05;;;;;;;18.52;10.63;;;;;;;20.98;58.13;99549.41;5033551;28;20057;-83
2022/06/10 00:08:35;;;;;;;19.65;10.88;;;;;;;20.91;58.17;99546.16;5033600;28;20057;-83
2022/06/10 00:11:04;;;;;;;21.40;11.52;;;;;;;20.92;58.18;99552.34;5032225;28;20456;-83
2022/06/10 00:13:34;;;;;;;25.50;11.23;;;;;;;20.88;58.04;99553.41;5033608;28;20049;-82
2022/06/10 00:16:01;;;;;;;25.40;10.95;;;;;;;20.90;59.18;99527.66;5034261;28;20136;-81
2022/06/10 00:18:31;;;;;;;27.77;11.68;;;;;;;20.94;58.51;99527.44;5034256;28;20049;-81
2022/06/10 00:21:00;;;;;;;33.30;12.25;;;;;;;20.92;58.12;99523.13;5034840;28;20053;-81
2022/06/10 00:23:27;;;;;;;35.53;12.68;;;;;;;20.96;58.30;99525.56;5032069;28;20559;-81
2022/06/10 00:25:54;;;;;;;27.00;11.82;;;;;;;21.03;60.43;99526.16;5032857;28;20433;-80
2022/06/10 00:28:21;;;;;;;27.92;12.20;;;;;;;21.02;61.11;99537.72;5033221;28;20144;-81
2022/06/10 00:30:49;;;;;;;27.25;12.38;;;;;;;21.01;62.05;99541.28;5033122;28;20382;-81
2022/06/10 00:33:17;;;;;;;30.17;11.60;;;;;;;20.99;62.07;99529.88;5033225;28;20049;-81
2022/06/10 00:35:44;;;;;;;25.13;13.43;;;;;;;20.95;61.94;99528.28;5032837;28;20045;-81
2022/06/10 00:38:11;;;;;;;31.95;13.55;;;;;;;20.91;63.07;99538.22;5032935;28;20540;-82
2022/06/10 00:40:42;;;;;;;26.02;13.10;;;;;;;20.84;63.22;99536.72;5032765;28;20057;-81
2022/06/10 00:43:14;;;;;;;26.05;13.32;;;;;;;20.81;63.36;99537.75;5033176;28;20519;-82
2022/06/10 00:46:05;;;;;;;32.05;13.00;;;;;;;20.83;63.32;99537.69;5032704;28;20115;-82
2022/06/10 00:48:38;;;;;;;30.77;13.23;;;;;;;20.73;64.42;99520.44;5032890;28;20041;-81
2022/06/10 00:51:18;;;;;;;34.95;14.15;;;;;;;20.81;64.82;99544.84;5033462;28;20053;-82
2022/06/10 00:53:50;;;;;;;28.27;13.00;;;;;;;20.83;64.98;99548.28;5032650;28;20057;-83
2022/06/10 00:56:22;;;;;;;27.38;12.13;;;;;;;20.74;65.04;99551.34;5031915;28;20145;-83
2022/06/10 00:59:01;;;;;;;30.48;12.98;;;;;;;20.73;65.33;99565.53;5032717;28;20049;-84
2022/06/10 01:01:31;;;;;;;25.75;13.10;;;;;;;20.60;64.89;99568.72;5033008;28;20053;-84
2022/06/10 01:04:00;;;;;;;26.73;12.70;;;;;;;20.51;64.70;99561.13;5032802;28;20060;-82
2022/06/10 01:06:27;;;;;;;28.13;12.33;;;;;;;20.31;64.75;99550.50;5032286;28;20057;-82
2022/06/10 01:08:57;;;;;;;31.23;14.45;;;;;;;20.30;64.52;99562.00;5031322;28;20049;-82
2022/06/10 01:11:27;;;;;;;27.05;13.35;;;;;;;20.22;64.87;99570.31;5031139;28;20092;-82
2022/06/10 01:14:26;;;;;;;25.35;13.00;;;;;;;20.14;64.75;99575.91;5032499;28;20087;-83
2022/06/10 01:17:23;;;;;;;28.00;12.82;;;;;;;20.04;65.45;99572.75;5032415;28;20431;-83
2022/06/10 01:20:02;;;;;;;25.88;12.90;;;;;;;20.13;65.55;99574.16;5032606;28;20053;-81
2022/06/10 01:22:44;;;;;;;28.75;13.07;;;;;;;20.19;65.62;99575.72;5032726;28;20053;-83
2022/06/10 01:25:32;;;;;;;32.55;13.05;;;;;;;20.31;65.23;99580.53;5033111;28;20129;-82
2022/06/10 01:28:17;;;;;;;22.00;12.63;;;;;;;20.38;64.88;99582.00;5032916;28;20412;-81
2022/06/10 01:30:56;;;;;;;24.00;12.70;;;;;;;20.50;64.69;99585.06;5033610;28;20115;-82
2022/06/10 01:33:41;;;;;;;31.23;13.30;;;;;;;20.49;64.91;99594.81;5032813;28;20053;-82
2022/06/10 01:36:26;;;;;;;20.83;12.05;;;;;;;20.48;63.57;99603.72;5015307;28;20049;-82
2022/06/10 01:39:03;;;;;;;27.38;12.70;;;;;;;20.42;63.03;99607.47;5031324;28;20100;-81
2022/06/10 01:41:54;;;;;;;28.50;13.10;;;;;;;20.30;63.29;99610.59;5032913;28;20144;-80
2022/06/10 01:44:27;;;;;;;21.17;12.38;;;;;;;20.34;63.55;99617.50;5025270;28;20045;-80
2022/06/10 01:47:15;;;;;;;24.13;14.05;;;;;;;20.25;63.43;99609.94;5032758;28;20115;-80
2022/06/10 01:49:46;;;;;;;24.05;12.60;;;;;;;20.33;63.69;99615.81;5032765;28;20080;-80
2022/06/10 01:52:19;;;;;;;23.50;12.88;;;;;;;20.36;63.75;99609.50;5033051;28;20057;-81
2022/06/10 01:55:19;;;;;;;23.58;12.45;;;;;;;20.35;63.33;99615.72;5032161;28;20432;-81
2022/06/10 01:57:57;;;;;;;22.55;12.35;;;;;;;20.39;63.81;99612.91;5031363;28;20052;-81
2022/06/10 02:00:31;;;;;;;20.85;12.38;;;;;;;20.44;63.52;99625.97;5032417;28;20057;-80
2022/06/10 02:03:00;;;;;;;22.92;11.80;;;;;;;20.98;62.23;99615.78;5031360;28;20057;-81
2022/06/10 02:05:33;;;;;;;19.80;12.30;;;;;;;21.19;61.13;99616.66;5032506;28;20049;-80
2022/06/10 02:08:32;;;;;;;21.08;11.80;;;;;;;20.89;61.70;99624.13;5032482;28;20054;-80
2022/06/10 02:11:06;;;;;;;19.65;12.88;;;;;;;20.64;62.49;99612.75;5031788;28;20053;-81
2022/06/10 02:13:40;;;;;;;18.95;11.45;;;;;;;20.58;63.22;99625.44;5033009;28;20128;-81
2022/06/10 02:16:12;;;;;;;23.23;13.90;;;;;;;20.40;63.21;99608.47;5032537;28;20619;-82
2022/06/10 02:18:55;;;;;;;23.70;14.40;;;;;;;20.43;63.41;99633.09;5037589;28;20056;-81
2022/06/10 02:22:01;;;;;;;25.95;13.50;;;;;;;20.35;63.53;99632.53;5035931;28;20144;-80
2022/06/10 02:24:37;;;;;;;33.83;16.70;;;;;;;20.31;64.04;99636.22;5036515;28;20049;-81
2022/06/10 02:27:09;;;;;;;28.98;13.82;;;;;;;20.33;64.15;99636.16;5035566;28;20057;-81
2022/06/10 02:29:49;;;;;;;31.42;15.70;;;;;;;20.37;64.28;99635.09;5035499;28;20076;-81
2022/06/10 02:32:17;;;;;;;26.58;13.73;;;;;;;20.29;64.19;99616.00;5035505;28;20080;-80
2022/06/10 02:34:45;;;;;;;28.42;17.17;;;;;;;20.50;63.95;99636.34;5034784;28;20144;-80
2022/06/10 02:37:24;;;;;;;31.80;18.02;;;;;;;20.56;63.81;99633.41;5033889;28;20073;-80
2022/06/10 02:40:06;;;;;;;32.63;17.77;;;;;;;20.65;63.70;99627.78;5035105;28;20053;-82
2022/06/10 02:43:01;;;;;;;32.05;17.08;;;;;;;20.73;63.22;99626.59;5035252;28;20052;-81
2022/06/10 02:45:35;;;;;;;27.00;13.60;;;;;;;20.88;62.97;99623.28;5033826;28;20045;-81
2022/06/10 02:48:22;;;;;;;18.48;10.82;;;;;;;21.00;62.51;99616.59;5035549;28;20053;-80
2022/06/10 02:50:49;;;;;;;17.05;10.20;;;;;;;20.89;62.47;99613.50;5034910;28;20053;-81
2022/06/10 02:53:16;;;;;;;17.60;10.57;;;;;;;20.91;62.57;99601.91;5034945;28;20060;-81
2022/06/10 02:55:43;;;;;;;16.38;10.50;;;;;;;20.98;62.63;99624.59;5034782;28;20052;-81
2022/06/10 03:01:41;;;;;;;16.90;10.75;;;;;;;21.15;61.99;99615.06;5035308;28;20049;-82
2022/06/10 03:04:33;;;;;;;31.17;15.93;;;;;;;21.26;61.96;99610.13;5030470;28;20144;-82
2022/06/10 03:07:07;;;;;;;24.25;14.10;;;;;;;21.50;61.32;99620.63;5049511;28;20030;-82
2022/06/10 03:10:06;;;;;;;26.45;14.32;;;;;;;21.93;60.20;99618.63;5059209;28;20092;-82
2022/06/10 03:12:49;;;;;;;28.88;15.68;;;;;;;23.73;55.59;99590.88;5059723;28;20033;-81
2022/06/10 03:15:29;;;;;;;21.00;11.85;;;;;;;28.11;45.57;99611.94;5043222;28;20053;-83
2022/06/10 03:18:17;;;;;;;20.23;12.15;;;;;;;30.70;39.44;99619.50;5038079;28;20061;-82
2022/06/10 03:21:10;;;;;;;24.85;12.45;;;;;;;30.89;38.94;99613.44;5034851;28;20053;-82
2022/06/10 03:23:40;;;;;;;15.48;11.43;;;;;;;30.64;38.63;99611.94;5035226;28;20053;-83
2022/06/10 03:26:31;;;;;;;16.20;10.73;;;;;;;28.59;42.60;99611.16;5034324;28;20061;-83
2022/06/10 03:29:32;;;;;;;17.60;10.68;;;;;;;28.61;43.67;99595.78;5032256;28;20083;-84
2022/06/10 03:32:12;;;;;;;18.10;10.38;;;;;;;32.01;36.86;99605.50;5032587;28;20417;-83
2022/06/10 03:34:52;;;;;;;12.45;8.75;;;;;;;32.39;35.84;99606.53;5034258;28;20057;-83
2022/06/10 03:37:22;;;;;;;10.50;8.85;;;;;;;33.23;33.82;99598.72;5034422;28;20152;-83
2022/06/10 03:39:54;;;;;;;10.63;7.80;;;;;;;33.60;33.15;99592.47;5034426;28;20110;-83
2022/06/10 03:42:24;;;;;;;11.30;7.55;;;;;;;35.40;30.22;99597.94;5035057;28;20148;-82
2022/06/10 03:44:55;;;;;;;11.13;8.45;;;;;;;36.82;27.85;99616.25;5037481;28;20053;-81
2022/06/10 03:47:28;;;;;;;8.45;7.63;;;;;;;38.14;26.03;99609.47;5034186;28;20061;-82
2022/06/10 03:49:58;;;;;;;11.00;7.93;;;;;;;38.84;24.75;99594.81;5033919;28;20057;-83
2022/06/10 03:52:30;;;;;;;8.80;7.85;;;;;;;40.02;23.35;99604.16;5033929;28;20140;-82
2022/06/10 03:54:57;;;;;;;10.75;7.82;;;;;;;41.18;21.80;99614.19;5033797;28;20080;-84
2022/06/10 03:57:24;;;;;;;10.18;7.63;;;;;;;41.84;21.31;99613.72;5033748;28;20049;-83
2022/06/10 03:59:54;;;;;;;10.75;7.72;;;;;;;42.30;20.33;99619.38;5034134;28;20053;-84
2022/06/10 04:02:21;;;;;;;12.48;7.97;;;;;;;42.02;20.45;99616.78;5032809;28;20140;-83
2022/06/10 04:04:50;;;;;;;13.27;8.38;;;;;;;42.04;20.54;99616.59;5032432;28;20053;-84
2022/06/10 04:07:18;;;;;;;10.40;8.65;;;;;;;42.51;20.16;99615.66;5033458;28;20493;-84
2022/06/10 04:09:46;;;;;;;10.85;8.40;;;;;;;42.68;19.75;99613.38;5033537;28;20064;-83
2022/06/10 04:12:15;;;;;;;15.38;9.88;;;;;;;42.24;20.16;99619.38;5032248;28;20061;-83
2022/06/10 04:14:43;;;;;;;14.15;10.30;;;;;;;41.52;20.60;99614.19;5032037;28;20053;-86
2022/06/10 04:17:11;;;;;;;10.10;8.53;;;;;;;40.05;22.52;99611.09;5033982;28;20049;-83
2022/06/10 04:19:38;;;;;;;10.43;9.05;;;;;;;37.80;24.88;99613.34;5033254;28;20780;-82
2022/06/10 04:22:05;;;;;;;10.05;8.25;;;;;;;35.25;28.52;99606.66;5033079;28;20145;-81
2022/06/10 04:24:32;;;;;;;14.43;9.52;;;;;;;33.85;30.61;99606.31;5033273;28;20050;-82
2022/06/10 04:27:00;;;;;;;11.75;8.27;;;;;;;32.57;32.37;99613.00;5032980;28;20061;-81
2022/06/10 04:29:26;;;;;;;9.25;7.40;;;;;;;31.66;34.36;99595.97;5032857;28;20123;-82
2022/06/10 04:31:54;;;;;;;13.80;8.55;;;;;;;31.20;34.92;99605.41;5031687;28;20420;-82
2022/06/10 04:34:21;;;;;;;12.88;9.07;;;;;;;30.47;36.49;99607.09;5032483;28;20057;-83
2022/06/10 04:36:48;;;;;;;8.55;7.53;;;;;;;29.90;37.77;99606.34;5032590;28;20509;-81
2022/06/10 04:39:15;;;;;;;14.40;7.65;;;;;;;29.57;38.38;99603.53;5032320;28;20056;-81
2022/06/10 04:41:42;;;;;;;10.52;6.95;;;;;;;29.26;38.96;99586.28;5032947;28;20258;-80
2022/06/10 04:44:09;;;;;;;6.80;6.07;;;;;;;29.16;39.26;99612.19;5033546;28;20053;-84
2022/06/10 04:46:45;;;;;;;9.32;6.75;;;;;;;29.22;39.29;99606.34;5031652;28;20053;-81
2022/06/10 04:49:12;;;;;;;7.88;6.57;;;;;;;29.18;38.93;99610.25;5032030;28;20497;-83
2022/06/10 04:51:39;;;;;;;11.98;7.00;;;;;;;28.92;39.65;99593.41;5031796;28;20053;-83
2022/06/10 04:54:07;;;;;;;9.57;6.97;;;;;;;28.57;40.32;99581.69;5032863;28;20061;-84
2022/06/10 04:56:38;;;;;;;10.53;7.13;;;;;;;28.53;41.04;99609.78;5031938;28;20054;-82
2022/06/10 04:59:05;;;;;;;10.77;6.57;;;;;;;28.58;41.17;99620.16;5032850;28;20284;-83
2022/06/10 05:01:32;;;;;;;9.30;6.80;;;;;;;28.65;40.49;99593.69;5032101;28;20049;-82
2022/06/10 05:03:59;;;;;;;10.55;7.72;;;;;;;28.84;39.65;99623.56;5033241;28;20141;-84
2022/06/10 05:06:26;;;;;;;12.57;8.30;;;;;;;28.30;40.59;99607.91;5031854;28;20084;-83
2022/06/10 05:08:53;;;;;;;9.82;6.85;;;;;;;28.02;41.26;99638.63;5032941;28;20493;-83
2022/06/10 05:11:20;;;;;;;8.15;6.25;;;;;;;27.81;42.01;99639.16;5031200;28;20538;-84
2022/06/10 05:13:47;;;;;;;9.88;7.28;;;;;;;27.93;41.94;99643.69;5032252;28;20410;-83
2022/06/10 05:16:21;;;;;;;9.75;7.60;;;;;;;27.72;42.06;99639.84;5036005;28;20058;-85
2022/06/10 05:18:48;;;;;;;9.80;6.90;;;;;;;27.53;42.67;99637.59;5015754;28;20084;-83
2022/06/10 05:21:15;;;;;;;8.10;7.30;;;;;;;27.41;43.08;99625.91;5034056;28;20081;-85
2022/06/10 05:23:45;;;;;;;7.82;6.95;;;;;;;28.02;41.88;99650.22;5033386;28;20075;-86
2022/06/10 05:26:14;;;;;;;11.38;7.82;;;;;;;28.02;41.84;99619.84;5033745;28;20053;-83
2022/06/10 05:28:41;;;;;;;8.13;7.32;;;;;;;27.95;41.81;99619.44;5035561;28;20049;-81
2022/06/10 05:31:08;;;;;;;8.48;6.90;;;;;;;27.74;42.18;99635.22;5033959;28;20485;-83
2022/06/10 05:36:21;;;;;;;7.75;7.00;;;;;;;27.76;42.01;99612.66;5032591;28;20056;-83
2022/06/10 05:38:49;;;;;;;10.85;7.60;;;;;;;28.14;42.01;99641.28;5032448;28;20495;-83
2022/06/10 05:44:02;;;;;;;8.18;7.28;;;;;;;28.03;42.04;99629.59;5032320;28;20420;-86
2022/06/10 05:46:29;;;;;;;11.63;8.05;;;;;;;28.13;41.75;99626.13;5014711;28;20081;-84
2022/06/10 05:48:56;;;;;;;7.47;6.78;;;;;;;28.09;41.70;99634.53;5031860;28;20111;-84
2022/06/10 05:51:24;;;;;;;8.85;7.72;;;;;;;28.10;42.09;99642.47;5033521;28;20061;-83
2022/06/10 05:53:51;;;;;;;7.97;7.20;;;;;;;28.08;41.75;99646.25;5035564;28;20126;-83
2022/06/10 05:56:18;;;;;;;8.23;7.43;;;;;;;27.90;42.03;99637.69;5035942;28;20053;-83
2022/06/10 05:58:45;;;;;;;9.18;6.90;;;;;;;27.93;42.28;99649.06;5036191;28;20057;-82
2022/06/10 06:01:12;;;;;;;8.25;6.97;;;;;;;27.90;41.08;99640.34;5036304;28;20053;-83
2022/06/10 06:03:39;;;;;;;11.18;7.80;;;;;;;28.00;40.35;99635.19;5035351;28;20140;-83
2022/06/10 06:06:08;;;;;;;10.18;7.50;;;;;;;28.35;39.42;99641.53;5034644;28;20103;-83
2022/06/10 06:08:35;;;;;;;11.75;7.20;;;;;;;28.60;39.49;99647.78;5034863;28;20065;-82
2022/06/10 06:11:02;;;;;;;12.75;7.10;;;;;;;28.47;39.39;99644.28;5036567;28;20483;-82
2022/06/10 06:13:30;;;;;;;9.90;7.70;;;;;;;28.38;39.58;99622.50;5036259;28;20390;-83
2022/06/10 06:15:57;;;;;;;8.00;7.15;;;;;;;28.26;39.35;99641.34;5037470;28;20572;-83
2022/06/10 06:18:24;;;;;;;7.63;6.80;;;;;;;28.02;40.23;99628.75;5040786;28;20046;-82
2022/06/10 06:20:51;;;;;;;9.20;7.55;;;;;;;27.97;40.88;99638.97;5041226;28;20135;-82
2022/06/10 06:23:20;;;;;;;15.13;7.15;;;;;;;28.10;40.37;99636.25;5034655;28;20171;-83
2022/06/10 06:25:46;;;;;;;10.07;7.88;;;;;;;28.02;40.18;99636.78;5035859;28;20148;-87
2022/06/10 06:28:14;;;;;;;12.13;8.05;;;;;;;28.25;39.64;99655.75;5034424;28;20057;-84
2022/06/10 06:30:44;;;;;;;10.30;7.72;;;;;;;28.03;40.14;99654.63;5034072;28;20053;-84
2022/06/10 06:33:11;;;;;;;11.77;7.80;;;;;;;27.80;40.31;99625.88;5034077;28;20083;-82
2022/06/10 06:35:41;;;;;;;7.70;7.00;;;;;;;27.94;40.38;99657.97;5035292;28;20079;-83
2022/06/10 06:38:09;;;;;;;7.72;7.03;;;;;;;27.88;40.39;99643.19;5034165;28;20049;-83
2022/06/10 06:40:36;;;;;;;10.63;8.35;;;;;;;27.82;40.53;99651.63;5034195;28;20079;-84
2022/06/10 06:43:04;;;;;;;7.97;7.18;;;;;;;27.47;41.26;99620.13;5035453;28;20053;-83
2022/06/10 06:45:31;;;;;;;10.65;7.32;;;;;;;27.56;41.29;99624.84;5035693;28;20053;-83
2022/06/10 06:48:03;;;;;;;8.02;7.22;;;;;;;27.90;40.47;99627.81;5033020;28;20040;-83
2022/06/10 06:50:33;;;;;;;8.23;7.20;;;;;;;28.01;40.01;99650.31;5035026;28;20099;-83
2022/06/10 06:53:00;;;;;;;;;;;;;;;27.45;40.93;99642.63;5046188;28;20053;-81
2022/06/10 06:55:35;;;;;;;8.40;7.50;;;;;;;27.30;41.43;99636.56;5055348;28;19917;-81
2022/06/10 06:58:03;;;;;;;9.15;7.30;;;;;;;27.40;41.81;99632.22;5031537;28;20080;-83
2022/06/10 07:00:30;;;;;;;10.93;7.53;;;;;;;27.90;40.73;99641.25;5050932;28;20137;-81
2022/06/10 07:02:58;;;;;;;11.50;7.90;;;;;;;28.21;40.30;99643.50;5021680;28;20045;-83
2022/06/10 07:05:26;;;;;;;8.82;7.32;;;;;;;28.22;39.79;99638.00;5021202;28;20176;-86
2022/06/10 07:07:53;;;;;;;8.60;7.68;;;;;;;28.14;40.40;99649.34;5021583;28;20082;-81
2022/06/10 07:10:21;;;;;;;15.18;9.93;;;;;;;27.96;40.55;99632.75;5031712;28;20084;-83
2022/06/10 07:12:49;;;;;;;13.15;9.60;;;;;;;27.85;40.99;99638.00;5015125;28;20058;-84
2022/06/10 07:15:18;;;;;;;11.98;9.10;;;;;;;27.90;41.11;99629.63;5030129;28;20049;-82
2022/06/10 07:17:45;;;;;;;14.43;9.35;;;;;;;28.08;40.68;99622.09;5014853;28;20398;-81
2022/06/10 07:20:28;;;;;;;8.10;7.30;;;;;;;28.44;40.32;99628.38;5014803;28;20188;-82
2022/06/10 07:22:59;;;;;;;8.60;7.80;;;;;;;28.72;39.28;99620.00;5014373;28;20065;-82
2022/06/10 07:25:28;;;;;;;9.73;8.80;;;;;;;28.78;39.42;99615.97;5013353;28;20106;-82
2022/06/10 07:27:55;;;;;;;11.35;7.55;;;;;;;28.83;38.75;99624.53;5013605;28;20050;-83
2022/06/10 07:30:28;;;;;;;8.55;7.28;;;;;;;29.02;38.34;99607.88;5013447;28;20049;-83
2022/06/10 07:32:57;;;;;;;11.07;7.53;;;;;;;29.57;37.64;99627.75;5014154;28;20052;-83
2022/06/10 07:35:25;;;;;;;10.40;7.82;;;;;;;29.47;37.55;99610.66;5034432;28;20509;-82
2022/06/10 07:37:52;;;;;;;14.23;9.43;;;;;;;28.79;39.04;99631.13;5032921;28;20055;-83
2022/06/10 07:43:40;;;;;;;9.55;7.55;;;;;;;28.43;39.61;99629.34;5034326;28;20045;-82
2022/06/10 07:46:12;;;;;;;7.97;6.88;;;;;;;28.59;38.80;99619.22;5034140;28;20053;-82
2022/06/10 07:49:08;;;;;;;9.77;8.25;;;;;;;28.79;38.40;99637.34;5040988;28;20049;-83
2022/06/10 07:51:36;;;;;;;8.18;7.38;;;;;;;28.74;38.33;99623.41;5032883;28;20452;-83
2022/06/10 07:54:03;;;;;;;12.25;8.30;;;;;;;29.10;38.26;99626.97;5033338;28;20398;-83
2022/06/10 07:56:30;;;;;;;11.50;8.38;;;;;;;29.23;37.75;99634.06;5034163;28;20049;-82
2022/06/10 07:58:59;;;;;;;8.77;7.65;;;;;;;28.62;37.33;99618.13;5034156;28;20116;-84
2022/06/10 08:01:29;;;;;;;14.13;10.07;;;;;;;28.22;38.35;99648.75;5033700;28;20060;-85
2022/06/10 08:03:57;;;;;;;17.77;10.45;;;;;;;27.74;39.10;99619.13;5032380;28;20120;-84
2022/06/10 08:06:26;;;;;;;12.63;8.68;;;;;;;27.91;39.32;99655.50;5033743;28;20497;-83
2022/06/10 08:08:56;;;;;;;9.30;8.32;;;;;;;28.16;38.61;99636.66;5033383;28;20053;-84
2022/06/10 08:11:23;;;;;;;9.07;7.90;;;;;;;28.55;38.14;99636.53;5033841;28;20103;-84
2022/06/10 08:13:50;;;;;;;10.68;7.13;;;;;;;28.69;37.85;99628.25;5033416;28;20061;-84
2022/06/10 08:16:18;;;;;;;10.15;8.02;;;;;;;28.47;37.98;99636.22;5032107;28;20053;-83
2022/06/10 08:18:47;;;;;;;11.07;7.78;;;;;;;28.47;37.32;99633.53;5033784;28;20095;-82
2022/06/10 08:24:03;;;;;;;9.10;7.88;;;;;;;28.59;36.66;99609.31;5033320;28;20100;-83
2022/06/10 08:26:30;;;;;;;12.75;8.70;;;;;;;28.41;36.18;99631.28;5032900;28;20057;-82
2022/06/10 08:28:58;;;;;;;12.05;8.68;;;;;;;27.84;37.28;99630.06;5032832;28;20457;-81
2022/06/10 08:31:25;;;;;;;12.85;9.32;;;;;;;27.71;38.04;99638.13;5032807;28;20061;-81
2022/06/10 08:33:52;;;;;;;9.65;8.23;;;;;;;27.86;37.56;99626.31;5033707;28;20144;-82
2022/06/10 08:36:19;;;;;;;10.35;7.75;;;;;;;28.21;37.30;99617.50;5032922;28;20045;-82
2022/06/10 08:38:50;;;;;;;8.85;8.00;;;;;;;28.26;37.45;99627.91;5032450;28;20551;-82
2022/06/10 08:41:33;;;;;;;12.90;8.32;;;;;;;27.90;38.37;99635.88;5032692;28;20056;-82
2022/06/10 08:44:21;;;;;;;10.75;8.75;;;;;;;27.67;39.12;99634.81;5032703;28;20512;-82
2022/06/10 08:47:14;;;;;;;11.02;8.48;;;;;;;28.16;38.22;99617.84;5031715;28;20156;-81
2022/06/10 08:50:03;;;;;;;10.38;8.05;;;;;;;28.44;38.12;99631.03;5032625;28;20053;-81
2022/06/10 08:53:07;;;;;;;11.25;8.18;;;;;;;28.24;38.07;99630.69;5032850;28;20045;-83
2022/06/10 08:55:53;;;;;;;9.02;8.05;;;;;;;27.70;37.93;99622.97;5032999;28;20057;-83
2022/06/10 08:58:26;;;;;;;16.60;9.48;;;;;;;27.41;39.12;99617.03;5031481;28;20054;-81
2022/06/10 09:01:01;;;;;;;12.32;9.77;;;;;;;27.49;39.36;99617.31;5032821;28;20054;-85
2022/06/10 09:03:47;;;;;;;11.07;7.90;;;;;;;27.95;36.31;99624.78;5033516;28;20140;-84
2022/06/10 09:06:29;;;;;;;9.05;7.95;;;;;;;28.21;35.50;99620.19;5033059;28;20457;-83
2022/06/10 09:09:03;;;;;;;11.68;7.22;;;;;;;28.58;34.57;99620.16;5031473;28;20052;-85
2022/06/10 09:11:37;;;;;;;8.98;7.65;;;;;;;28.78;33.90;99610.59;5033149;28;20148;-85
2022/06/10 09:14:18;;;;;;;13.93;8.40;;;;;;;28.93;34.94;99619.31;5033527;28;20098;-85
2022/06/10 09:16:48;;;;;;;14.88;11.52;;;;;;;28.50;36.22;99626.13;5031580;28;20049;-84
2022/06/10 09:19:25;;;;;;;13.30;9.45;;;;;;;27.94;37.47;99625.75;5032168;28;20127;-85
2022/06/10 09:22:30;;;;;;;13.40;9.20;;;;;;;27.63;38.22;99625.25;5032685;28;20148;-84
2022/06/10 09:25:13;;;;;;;12.45;9.05;;;;;;;27.91;37.33;99626.84;5032973;28;20497;-87
2022/06/10 09:27:44;;;;;;;9.50;7.50;;;;;;;27.96;36.19;99595.16;5018533;28;20505;-87
2022/06/10 09:30:16;;;;;;;11.52;7.22;;;;;;;28.16;34.65;99614.31;5035660;28;20056;-82
2022/06/10 09:32:49;;;;;;;13.48;8.00;;;;;;;28.18;35.08;99617.75;5036405;28;20049;-84
2022/06/10 09:35:51;;;;;;;22.58;8.98;;;;;;;27.81;36.31;99617.69;5037633;28;20164;-84
2022/06/10 09:38:29;;;;;;;11.15;7.55;;;;;;;27.46;35.17;99612.19;5035736;28;20522;-84
2022/06/10 09:41:02;;;;;;;11.95;7.95;;;;;;;27.29;35.40;99608.84;5036280;28;20076;-84
2022/06/10 09:43:50;;;;;;;10.10;7.20;;;;;;;27.60;33.65;99620.13;5036781;28;20064;-84
2022/06/10 09:46:48;;;;;;;7.90;6.38;;;;;;;27.93;32.82;99611.47;5035635;28;20073;-85
2022/06/10 09:49:41;;;;;;;8.88;6.50;;;;;;;28.02;32.37;99583.09;5035378;28;20084;-83
2022/06/10 09:52:27;;;;;;;11.23;7.47;;;;;;;27.82;33.03;99613.22;5033309;28;20100;-83
2022/06/10 09:54:55;;;;;;;10.68;6.80;;;;;;;27.92;33.81;99617.84;5034442;28;20049;-85
2022/06/10 09:57:48;;;;;;;14.60;7.00;;;;;;;28.22;33.40;99613.00;5035390;28;20049;-86
2022/06/10 10:00:19;;;;;;;7.35;6.65;;;;;;;28.44;32.71;99607.75;5035019;28;20115;-86
2022/06/10 10:03:28;;;;;;;10.57;7.32;;;;;;;28.49;32.77;99605.59;5034787;28;20087;-83
2022/06/10 10:06:17;;;;;;;13.60;9.25;;;;;;;28.31;32.97;99602.44;5035199;28;20195;-85
2022/06/10 10:08:44;;;;;;;7.30;6.60;;;;;;;28.15;33.12;99617.97;5036113;28;20057;-82
2022/06/10 10:11:45;;;;;;;9.07;6.13;;;;;;;27.98;32.98;99609.34;5035954;28;20065;-81
2022/06/10 10:14:24;;;;;;;10.88;6.07;;;;;;;28.06;32.14;99605.22;5036390;28;20054;-83
2022/06/10 10:17:28;;;;;;;6.80;5.95;;;;;;;28.16;31.70;99606.28;5036108;28;20049;-82
2022/06/10 10:20:09;;;;;;;10.65;6.65;;;;;;;28.37;32.04;99612.72;5036710;28;20551;-81
2022/06/10 10:22:45;;;;;;;9.30;6.25;;;;;;;28.40;31.70;99603.59;5037406;28;20065;-82
2022/06/10 10:25:19;;;;;;;8.98;7.22;;;;;;;28.03;31.82;99608.13;5036530;28;20057;-82
2022/06/10 10:27:48;;;;;;;10.27;7.05;;;;;;;27.90;32.77;99600.97;5034761;28;20050;-83
2022/06/10 10:30:42;;;;;;;11.40;7.32;;;;;;;28.00;32.34;99597.63;5035953;28;20079;-82
2022/06/10 10:33:12;;;;;;;8.95;6.20;;;;;;;28.06;32.32;99602.53;5027200;28;20053;-81
2022/06/10 10:35:41;;;;;;;9.95;6.47;;;;;;;28.18;31.60;99607.88;5024128;28;20056;-82
2022/06/10 10:38:12;;;;;;;6.55;5.78;;;;;;;27.85;31.28;99595.06;5024023;28;20054;-81
2022/06/10 10:40:44;;;;;;;8.40;5.75;;;;;;;27.72;30.95;99591.53;5025272;28;20424;-78
2022/06/10 10:43:23;;;;;;;12.63;6.53;;;;;;;27.76;32.15;99579.63;5032327;28;20049;-81
2022/06/10 10:45:58;;;;;;;8.23;6.32;;;;;;;28.03;31.72;99595.56;5036058;28;20034;-82
2022/06/10 10:48:31;;;;;;;6.97;5.97;;;;;;;28.28;31.56;99593.75;5057778;28;20033;-84
2022/06/10 10:51:03;;;;;;;10.27;6.57;;;;;;;28.32;31.07;99590.72;5055879;28;20072;-81
2022/06/10 10:53:39;;;;;;;9.15;6.15;;;;;;;28.07;31.22;99607.81;5038946;28;20053;-82
2022/06/10 10:56:08;;;;;;;7.85;6.10;;;;;;;27.92;31.18;99585.63;5036695;28;20057;-82
2022/06/10 10:58:40;;;;;;;7.32;6.05;;;;;;;27.98;30.98;99603.09;5034001;28;20417;-83
2022/06/10 11:01:54;;;;;;;8.02;5.80;;;;;;;28.09;30.51;99605.88;5033686;28;20080;-82
2022/06/10 11:04:02;;;;;;;6.03;5.43;;;;;;;28.19;30.19;99597.97;5031926;28;20104;-80
2022/06/10 11:06:32;;;;;;;6.55;5.90;;;;;;;28.33;30.08;99597.81;5033745;28;20428;-80
2022/06/10 11:09:14;;;;;;;9.15;5.90;;;;;;;28.44;29.74;99601.50;5035117;28;20061;-80
2022/06/10 11:11:43;;;;;;;10.60;6.32;;;;;;;28.36;29.48;99599.41;5033293;28;20524;-83
2022/06/10 11:14:18;;;;;;;6.25;5.30;;;;;;;28.08;29.87;99596.09;5034069;28;20408;-81
2022/06/10 11:17:11;;;;;;;6.75;5.63;;;;;;;27.84;30.05;99603.22;5033690;28;20058;-80
2022/06/10 11:19:55;;;;;;;7.45;5.53;;;;;;;27.64;30.29;99589.44;5034424;28;20065;-82
2022/06/10 11:22:29;;;;;;;14.55;6.97;;;;;;;27.56;30.71;99579.22;5034185;28;20053;-82
2022/06/10 11:25:22;;;;;;;7.43;5.90;;;;;;;27.74;30.58;99589.59;5033734;28;20054;-82
2022/06/10 11:27:50;;;;;;;12.48;8.35;;;;;;;27.71;31.08;99598.75;5033988;28;20064;-82
2022/06/10 11:30:22;;;;;;;12.65;5.72;;;;;;;27.58;30.35;99571.09;5033901;28;20513;-81
2022/06/10 11:32:49;;;;;;;6.00;5.50;;;;;;;27.66;30.91;99589.28;5032473;28;20149;-81
2022/06/10 11:35:22;;;;;;;8.00;5.75;;;;;;;27.82;31.03;99587.22;5034250;28;20148;-82
2022/06/10 11:37:54;;;;;;;9.63;5.72;;;;;;;27.84;30.57;99614.81;5034100;28;20057;-83
2022/06/10 11:40:26;;;;;;;7.78;5.68;;;;;;;27.74;30.49;99611.91;5033922;28;20056;-81
2022/06/10 11:43:01;;;;;;;9.15;5.40;;;;;;;27.78;30.60;99604.50;5034394;28;20050;-81
2022/06/10 11:45:43;;;;;;;6.25;5.50;;;;;;;27.77;30.84;99600.97;5032738;28;20057;-82
2022/06/10 11:48:20;;;;;;;8.55;5.80;;;;;;;27.88;30.62;99619.03;5032868;28;20140;-82
2022/06/10 11:51:10;;;;;;;6.43;5.35;;;;;;;27.86;30.95;99612.06;5032982;28;20559;-82
2022/06/10 11:53:54;;;;;;;9.15;6.50;;;;;;;27.69;31.05;99592.63;5033853;28;20140;-81
2022/06/10 12:02:08;;;;;;;5.95;5.40;;;;;;;27.64;32.43;99613.56;5033716;28;20057;-82
2022/06/10 12:04:42;;;;;;;7.60;6.20;;;;;;;27.69;32.32;99614.09;5033421;28;20083;-81
2022/06/10 12:07:22;;;;;;;7.97;5.95;;;;;;;27.77;31.98;99590.25;5034063;28;20049;-81
2022/06/10 12:09:53;;;;;;;7.88;5.60;;;;;;;27.82;31.81;99581.84;5033402;28;20149;-81
2022/06/10 12:12:29;;;;;;;8.10;6.32;;;;;;;27.73;32.01;99595.94;5031529;28;20148;-81
2022/06/10 12:14:59;;;;;;;9.90;6.82;;;;;;;27.70;32.11;99588.94;5033251;28;20576;-80
2022/06/10 12:17:42;;;;;;;11.20;6.10;;;;;;;27.86;32.21;99591.44;5033334;28;20464;-81
2022/06/10 12:20:43;;;;;;;6.90;5.82;;;;;;;27.75;32.55;99586.81;5033174;28;20064;-82